MiSS Niz — WDF2697 — position and weather

sailwx.info

Track history (hours):
 
Tides and Currents Weather Stations Pressure Air Temp Water Temp Dewpoint Dewpoint Depression Visibility Wind Speed Wind Dir Waves Ship Positions

MiSS Niz

Owner: Marquette Transportation Company Offshore LLC, Jefferson, LA. More information available from US FCC via Universal Licensing System and Coast Guard Vessel Documentation Center.

Last reported at 2017-Oct-17 21:07 UTC. Time now 2017-Oct-20 06:42 UTC.
Position N 29°26' W 090°43'.

Length 22 m; draft 3.5 m.

Type: Tug. MMSI: 367430850.

Date/timePositionNaut miles runAvg speedWind from/ knotsBaromVisibWave heightAir tempDewpointWater temp
2017-Oct-17 21:07N 29°26' W 090°43'1 5.3
2017-Oct-17 20:58N 29°27' W 090°43'2 5.3
2017-Oct-17 20:30N 29°30' W 090°43'3 5.3
2017-Oct-17 20:00N 29°32' W 090°42'1 2.5
2017-Oct-17 19:30N 29°33' W 090°42'1 1.6
2017-Oct-17 19:01N 29°34' W 090°43'3 5.4
2017-Oct-17 18:31N 29°37' W 090°42'3 6.7
2017-Oct-17 18:01N 29°35' W 090°39'3 5.4
2017-Oct-17 17:31N 29°35' W 090°36'3 6.6
2017-Oct-17 17:00N 29°34' W 090°32'  
2017-Oct-14 06:05N 29°33' W 090°24'1 8.5
2017-Oct-14 05:59N 29°33' W 090°25'4 8.5
2017-Oct-14 05:30N 29°34' W 090°30'4 8.3
2017-Oct-14 05:00N 29°34' W 090°35'3 6.7
2017-Oct-14 04:30N 29°35' W 090°38'4 7.1
2017-Oct-14 04:00N 29°37' W 090°42'3 6.4
2017-Oct-14 03:30N 29°34' W 090°44'3 6.3
2017-Oct-14 03:00N 29°32' W 090°47'  
Track history (hours):
 
Tides and Currents Weather Stations Pressure Air Temp Water Temp Dewpoint Dewpoint Depression Visibility Wind Speed Wind Dir Waves Ship Positions

MiSS Niz

Owner: Marquette Transportation Company Offshore LLC, Jefferson, LA. More information available from US FCC via Universal Licensing System and Coast Guard Vessel Documentation Center.

Last reported at 2017-Oct-17 21:07 UTC. Time now 2017-Oct-20 06:42 UTC.
Position N 29°26' W 090°43'.

Length 22 m; draft 3.5 m.

Type: Tug. MMSI: 367430850.

Date/timePositionNaut miles runAvg speedWind from/ knotsBaromVisibWave heightAir tempDewpointWater temp
2017-Oct-17 21:07N 29°26' W 090°43'1 5.3
2017-Oct-17 20:58N 29°27' W 090°43'2 5.3
2017-Oct-17 20:30N 29°30' W 090°43'3 5.3
2017-Oct-17 20:00N 29°32' W 090°42'1 2.5
2017-Oct-17 19:30N 29°33' W 090°42'1 1.6
2017-Oct-17 19:01N 29°34' W 090°43'3 5.4
2017-Oct-17 18:31N 29°37' W 090°42'3 6.7
2017-Oct-17 18:01N 29°35' W 090°39'3 5.4
2017-Oct-17 17:31N 29°35' W 090°36'3 6.6
2017-Oct-17 17:00N 29°34' W 090°32'  
2017-Oct-14 06:05N 29°33' W 090°24'1 8.5
2017-Oct-14 05:59N 29°33' W 090°25'4 8.5
2017-Oct-14 05:30N 29°34' W 090°30'4 8.3
2017-Oct-14 05:00N 29°34' W 090°35'3 6.7
2017-Oct-14 04:30N 29°35' W 090°38'4 7.1
2017-Oct-14 04:00N 29°37' W 090°42'3 6.4
2017-Oct-14 03:30N 29°34' W 090°44'3 6.3
2017-Oct-14 03:00N 29°32' W 090°47'  

Dump ship's entire track history